sensor_id;sensor_type;location;lat;lon;timestamp;temperature;humidity
7447;DHT22;3765;47.962;7.952;2023-07-31T00:02:17;15.60;71.30
7447;DHT22;3765;47.962;7.952;2023-07-31T00:04:45;15.70;71.40
7447;DHT22;3765;47.962;7.952;2023-07-31T00:07:13;15.80;71.30
7447;DHT22;3765;47.962;7.952;2023-07-31T00:09:41;15.80;71.30
7447;DHT22;3765;47.962;7.952;2023-07-31T00:12:10;15.80;71.20
7447;DHT22;3765;47.962;7.952;2023-07-31T00:14:38;15.80;71.40
7447;DHT22;3765;47.962;7.952;2023-07-31T00:17:06;15.80;71.30
7447;DHT22;3765;47.962;7.952;2023-07-31T00:19:36;15.80;71.50
7447;DHT22;3765;47.962;7.952;2023-07-31T00:22:04;15.80;71.40
7447;DHT22;3765;47.962;7.952;2023-07-31T00:24:33;15.80;71.50
7447;DHT22;3765;47.962;7.952;2023-07-31T00:27:01;15.80;71.60
7447;DHT22;3765;47.962;7.952;2023-07-31T00:29:29;15.80;71.60
7447;DHT22;3765;47.962;7.952;2023-07-31T00:31:57;15.80;71.70
7447;DHT22;3765;47.962;7.952;2023-07-31T00:34:26;15.80;71.70
7447;DHT22;3765;47.962;7.952;2023-07-31T00:37:15;15.80;71.80
7447;DHT22;3765;47.962;7.952;2023-07-31T00:39:57;15.70;71.80
7447;DHT22;3765;47.962;7.952;2023-07-31T00:42:25;15.70;72.00
7447;DHT22;3765;47.962;7.952;2023-07-31T00:44:55;15.60;72.10
7447;DHT22;3765;47.962;7.952;2023-07-31T00:47:23;15.60;72.20
7447;DHT22;3765;47.962;7.952;2023-07-31T00:49:52;15.70;72.20
7447;DHT22;3765;47.962;7.952;2023-07-31T00:52:22;15.60;72.30
7447;DHT22;3765;47.962;7.952;2023-07-31T00:54:50;15.70;72.40
7447;DHT22;3765;47.962;7.952;2023-07-31T00:57:18;15.70;72.50
7447;DHT22;3765;47.962;7.952;2023-07-31T00:59:47;15.80;72.40
7447;DHT22;3765;47.962;7.952;2023-07-31T01:02:15;15.70;72.60
7447;DHT22;3765;47.962;7.952;2023-07-31T01:04:43;15.60;72.70
7447;DHT22;3765;47.962;7.952;2023-07-31T01:07:17;15.60;72.70
7447;DHT22;3765;47.962;7.952;2023-07-31T01:09:56;15.60;72.80
7447;DHT22;3765;47.962;7.952;2023-07-31T01:12:27;15.50;73.00
7447;DHT22;3765;47.962;7.952;2023-07-31T01:15:03;15.50;72.90
7447;DHT22;3765;47.962;7.952;2023-07-31T01:17:32;15.40;73.10
7447;DHT22;3765;47.962;7.952;2023-07-31T01:20:02;15.40;73.00
7447;DHT22;3765;47.962;7.952;2023-07-31T01:22:45;15.40;73.20
7447;DHT22;3765;47.962;7.952;2023-07-31T01:25:31;15.30;73.30
7447;DHT22;3765;47.962;7.952;2023-07-31T01:28:08;15.30;73.50
7447;DHT22;3765;47.962;7.952;2023-07-31T01:30:40;15.30;73.60
7447;DHT22;3765;47.962;7.952;2023-07-31T01:33:09;15.10;73.50
7447;DHT22;3765;47.962;7.952;2023-07-31T01:35:39;14.90;73.90
7447;DHT22;3765;47.962;7.952;2023-07-31T01:38:07;15.00;74.00
7447;DHT22;3765;47.962;7.952;2023-07-31T01:40:36;14.90;74.00
7447;DHT22;3765;47.962;7.952;2023-07-31T01:43:05;14.80;74.00
7447;DHT22;3765;47.962;7.952;2023-07-31T01:45:33;14.80;74.10
7447;DHT22;3765;47.962;7.952;2023-07-31T01:48:02;14.80;74.30
7447;DHT22;3765;47.962;7.952;2023-07-31T01:50:30;14.80;74.30
7447;DHT22;3765;47.962;7.952;2023-07-31T01:52:58;14.80;74.30
7447;DHT22;3765;47.962;7.952;2023-07-31T01:55:26;14.80;74.20
7447;DHT22;3765;47.962;7.952;2023-07-31T01:57:54;14.60;74.40
7447;DHT22;3765;47.962;7.952;2023-07-31T02:00:24;14.60;74.50
7447;DHT22;3765;47.962;7.952;2023-07-31T02:02:52;14.60;74.70
7447;DHT22;3765;47.962;7.952;2023-07-31T02:05:20;14.60;74.70
7447;DHT22;3765;47.962;7.952;2023-07-31T02:07:49;14.60;74.80
7447;DHT22;3765;47.962;7.952;2023-07-31T02:10:17;14.60;74.80
7447;DHT22;3765;47.962;7.952;2023-07-31T02:12:45;14.60;74.90
7447;DHT22;3765;47.962;7.952;2023-07-31T02:15:14;14.60;74.90
7447;DHT22;3765;47.962;7.952;2023-07-31T02:17:55;14.60;74.90
7447;DHT22;3765;47.962;7.952;2023-07-31T02:20:25;14.50;75.00
7447;DHT22;3765;47.962;7.952;2023-07-31T02:22:53;14.50;75.10
7447;DHT22;3765;47.962;7.952;2023-07-31T02:25:21;14.40;75.10
7447;DHT22;3765;47.962;7.952;2023-07-31T02:28:00;14.40;75.20
7447;DHT22;3765;47.962;7.952;2023-07-31T02:30:29;14.40;75.30
7447;DHT22;3765;47.962;7.952;2023-07-31T02:33:17;14.30;75.40
7447;DHT22;3765;47.962;7.952;2023-07-31T02:35:46;14.30;75.50
7447;DHT22;3765;47.962;7.952;2023-07-31T02:38:17;14.30;75.60
7447;DHT22;3765;47.962;7.952;2023-07-31T02:40:49;14.30;75.60
7447;DHT22;3765;47.962;7.952;2023-07-31T02:43:20;14.40;75.60
7447;DHT22;3765;47.962;7.952;2023-07-31T02:45:53;14.30;75.60
7447;DHT22;3765;47.962;7.952;2023-07-31T02:48:27;14.40;75.60
7447;DHT22;3765;47.962;7.952;2023-07-31T02:51:03;14.30;75.60
7447;DHT22;3765;47.962;7.952;2023-07-31T02:53:35;14.30;75.60
7447;DHT22;3765;47.962;7.952;2023-07-31T02:56:12;14.30;75.50
7447;DHT22;3765;47.962;7.952;2023-07-31T02:58:42;14.20;75.60
7447;DHT22;3765;47.962;7.952;2023-07-31T03:01:14;14.20;75.60
7447;DHT22;3765;47.962;7.952;2023-07-31T03:03:53;14.20;75.70
7447;DHT22;3765;47.962;7.952;2023-07-31T03:06:22;14.10;75.50
7447;DHT22;3765;47.962;7.952;2023-07-31T03:08:54;14.00;75.70
7447;DHT22;3765;47.962;7.952;2023-07-31T03:11:38;14.00;75.80
7447;DHT22;3765;47.962;7.952;2023-07-31T03:14:08;14.00;75.80
7447;DHT22;3765;47.962;7.952;2023-07-31T03:16:38;14.00;75.80
7447;DHT22;3765;47.962;7.952;2023-07-31T03:19:15;14.00;75.80
7447;DHT22;3765;47.962;7.952;2023-07-31T03:21:47;13.90;75.70
7447;DHT22;3765;47.962;7.952;2023-07-31T03:24:19;13.90;75.80
7447;DHT22;3765;47.962;7.952;2023-07-31T03:26:47;13.80;75.90
7447;DHT22;3765;47.962;7.952;2023-07-31T03:29:18;13.70;75.80
7447;DHT22;3765;47.962;7.952;2023-07-31T03:31:51;13.60;75.80
7447;DHT22;3765;47.962;7.952;2023-07-31T03:34:24;13.70;75.90
7447;DHT22;3765;47.962;7.952;2023-07-31T03:36:55;13.70;75.80
7447;DHT22;3765;47.962;7.952;2023-07-31T03:39:28;13.80;75.90
7447;DHT22;3765;47.962;7.952;2023-07-31T03:42:04;13.80;75.90
7447;DHT22;3765;47.962;7.952;2023-07-31T03:44:37;13.80;75.80
7447;DHT22;3765;47.962;7.952;2023-07-31T03:47:07;13.70;75.80
7447;DHT22;3765;47.962;7.952;2023-07-31T03:49:40;13.80;75.90
7447;DHT22;3765;47.962;7.952;2023-07-31T03:52:13;13.80;75.80
7447;DHT22;3765;47.962;7.952;2023-07-31T03:54:43;13.80;75.60
7447;DHT22;3765;47.962;7.952;2023-07-31T03:57:20;13.80;75.70
7447;DHT22;3765;47.962;7.952;2023-07-31T03:59:49;13.90;75.70
7447;DHT22;3765;47.962;7.952;2023-07-31T04:02:25;13.90;75.60
7447;DHT22;3765;47.962;7.952;2023-07-31T04:04:59;14.00;75.60
7447;DHT22;3765;47.962;7.952;2023-07-31T04:07:27;14.00;75.50
7447;DHT22;3765;47.962;7.952;2023-07-31T04:10:00;14.00;75.40
7447;DHT22;3765;47.962;7.952;2023-07-31T04:12:29;14.00;75.40
7447;DHT22;3765;47.962;7.952;2023-07-31T04:15:00;14.00;75.40
7447;DHT22;3765;47.962;7.952;2023-07-31T04:17:30;14.00;75.40
7447;DHT22;3765;47.962;7.952;2023-07-31T04:20:03;14.10;75.40
7447;DHT22;3765;47.962;7.952;2023-07-31T04:22:34;14.00;75.30
7447;DHT22;3765;47.962;7.952;2023-07-31T04:25:02;14.00;75.50
7447;DHT22;3765;47.962;7.952;2023-07-31T04:27:35;14.10;75.50
7447;DHT22;3765;47.962;7.952;2023-07-31T04:30:05;14.10;75.40
7447;DHT22;3765;47.962;7.952;2023-07-31T04:32:37;14.10;75.40
7447;DHT22;3765;47.962;7.952;2023-07-31T04:35:08;14.10;75.40
7447;DHT22;3765;47.962;7.952;2023-07-31T04:37:40;14.10;75.50
7447;DHT22;3765;47.962;7.952;2023-07-31T04:40:13;14.20;75.40
7447;DHT22;3765;47.962;7.952;2023-07-31T04:42:49;14.30;75.30
7447;DHT22;3765;47.962;7.952;2023-07-31T04:45:19;14.30;75.10
7447;DHT22;3765;47.962;7.952;2023-07-31T04:47:49;14.30;75.30
7447;DHT22;3765;47.962;7.952;2023-07-31T04:50:20;14.40;75.20
7447;DHT22;3765;47.962;7.952;2023-07-31T04:52:56;14.50;75.00
7447;DHT22;3765;47.962;7.952;2023-07-31T04:55:26;14.50;75.00
7447;DHT22;3765;47.962;7.952;2023-07-31T04:58:01;14.50;74.80
7447;DHT22;3765;47.962;7.952;2023-07-31T05:00:33;14.60;74.90
7447;DHT22;3765;47.962;7.952;2023-07-31T05:03:18;14.60;74.80
7447;DHT22;3765;47.962;7.952;2023-07-31T05:05:52;14.70;74.80
7447;DHT22;3765;47.962;7.952;2023-07-31T05:08:22;14.70;74.70
7447;DHT22;3765;47.962;7.952;2023-07-31T05:10:51;14.80;74.70
7447;DHT22;3765;47.962;7.952;2023-07-31T05:13:28;14.80;74.70
7447;DHT22;3765;47.962;7.952;2023-07-31T05:16:15;14.80;74.60
7447;DHT22;3765;47.962;7.952;2023-07-31T05:18:44;14.80;74.60
7447;DHT22;3765;47.962;7.952;2023-07-31T05:21:17;14.90;74.40
7447;DHT22;3765;47.962;7.952;2023-07-31T05:23:50;15.00;74.40
7447;DHT22;3765;47.962;7.952;2023-07-31T05:26:24;15.10;74.30
7447;DHT22;3765;47.962;7.952;2023-07-31T05:28:53;15.20;74.20
7447;DHT22;3765;47.962;7.952;2023-07-31T05:31:28;15.10;74.20
7447;DHT22;3765;47.962;7.952;2023-07-31T05:34:02;15.10;74.30
7447;DHT22;3765;47.962;7.952;2023-07-31T05:36:37;15.20;74.20
7447;DHT22;3765;47.962;7.952;2023-07-31T05:39:11;15.30;74.20
7447;DHT22;3765;47.962;7.952;2023-07-31T05:41:48;15.30;74.10
7447;DHT22;3765;47.962;7.952;2023-07-31T05:44:20;15.50;74.10
7447;DHT22;3765;47.962;7.952;2023-07-31T05:46:55;15.30;73.90
7447;DHT22;3765;47.962;7.952;2023-07-31T05:49:38;15.30;73.90
7447;DHT22;3765;47.962;7.952;2023-07-31T05:52:18;15.50;73.90
7447;DHT22;3765;47.962;7.952;2023-07-31T05:54:52;15.60;73.60
7447;DHT22;3765;47.962;7.952;2023-07-31T05:57:22;15.70;73.50
7447;DHT22;3765;47.962;7.952;2023-07-31T05:59:53;15.70;73.20
7447;DHT22;3765;47.962;7.952;2023-07-31T06:02:36;15.80;73.20
7447;DHT22;3765;47.962;7.952;2023-07-31T06:05:10;15.90;73.30
7447;DHT22;3765;47.962;7.952;2023-07-31T06:07:43;16.00;73.10
7447;DHT22;3765;47.962;7.952;2023-07-31T06:10:15;16.20;73.10
7447;DHT22;3765;47.962;7.952;2023-07-31T06:12:52;16.10;72.80
7447;DHT22;3765;47.962;7.952;2023-07-31T06:15:26;16.10;73.00
7447;DHT22;3765;47.962;7.952;2023-07-31T06:18:00;16.30;73.00
7447;DHT22;3765;47.962;7.952;2023-07-31T06:20:29;16.50;72.50
7447;DHT22;3765;47.962;7.952;2023-07-31T06:23:01;16.60;72.20
7447;DHT22;3765;47.962;7.952;2023-07-31T06:25:31;16.60;72.10
7447;DHT22;3765;47.962;7.952;2023-07-31T06:28:09;16.70;72.00
7447;DHT22;3765;47.962;7.952;2023-07-31T06:30:39;16.60;71.90
7447;DHT22;3765;47.962;7.952;2023-07-31T06:33:09;16.60;72.10
7447;DHT22;3765;47.962;7.952;2023-07-31T06:35:39;16.80;72.00
7447;DHT22;3765;47.962;7.952;2023-07-31T06:38:13;17.10;71.80
7447;DHT22;3765;47.962;7.952;2023-07-31T06:40:44;17.30;71.30
7447;DHT22;3765;47.962;7.952;2023-07-31T06:43:16;17.50;71.00
7447;DHT22;3765;47.962;7.952;2023-07-31T06:45:47;17.60;70.60
7447;DHT22;3765;47.962;7.952;2023-07-31T06:48:21;17.70;70.30
7447;DHT22;3765;47.962;7.952;2023-07-31T06:50:51;17.80;70.00
7447;DHT22;3765;47.962;7.952;2023-07-31T06:53:38;17.90;69.50
7447;DHT22;3765;47.962;7.952;2023-07-31T06:56:21;18.10;69.10
7447;DHT22;3765;47.962;7.952;2023-07-31T06:58:58;18.40;68.70
7447;DHT22;3765;47.962;7.952;2023-07-31T07:01:37;18.60;68.00
7447;DHT22;3765;47.962;7.952;2023-07-31T07:04:10;18.80;67.40
7447;DHT22;3765;47.962;7.952;2023-07-31T07:06:43;18.80;66.20
7447;DHT22;3765;47.962;7.952;2023-07-31T07:09:13;18.90;65.70
7447;DHT22;3765;47.962;7.952;2023-07-31T07:11:43;19.10;65.20
7447;DHT22;3765;47.962;7.952;2023-07-31T07:14:14;19.20;64.40
7447;DHT22;3765;47.962;7.952;2023-07-31T07:16:44;19.10;64.40
7447;DHT22;3765;47.962;7.952;2023-07-31T07:19:12;19.10;64.00
7447;DHT22;3765;47.962;7.952;2023-07-31T07:21:44;19.00;63.80
7447;DHT22;3765;47.962;7.952;2023-07-31T07:24:21;19.00;63.70
7447;DHT22;3765;47.962;7.952;2023-07-31T07:26:52;19.00;63.70
7447;DHT22;3765;47.962;7.952;2023-07-31T07:29:23;19.20;63.20
7447;DHT22;3765;47.962;7.952;2023-07-31T07:31:54;19.30;62.60
7447;DHT22;3765;47.962;7.952;2023-07-31T07:34:47;19.50;62.30
7447;DHT22;3765;47.962;7.952;2023-07-31T07:37:20;19.60;61.90
7447;DHT22;3765;47.962;7.952;2023-07-31T07:40:11;19.90;61.00
7447;DHT22;3765;47.962;7.952;2023-07-31T07:42:43;19.70;60.70
7447;DHT22;3765;47.962;7.952;2023-07-31T07:45:15;19.80;60.70
7447;DHT22;3765;47.962;7.952;2023-07-31T07:47:47;20.10;60.40
7447;DHT22;3765;47.962;7.952;2023-07-31T07:50:19;20.30;60.10
7447;DHT22;3765;47.962;7.952;2023-07-31T07:52:57;20.50;59.50
7447;DHT22;3765;47.962;7.952;2023-07-31T07:55:27;20.80;59.30
7447;DHT22;3765;47.962;7.952;2023-07-31T07:57:55;20.80;58.70
7447;DHT22;3765;47.962;7.952;2023-07-31T08:00:27;21.20;58.30
7447;DHT22;3765;47.962;7.952;2023-07-31T08:03:02;21.50;57.50
7447;DHT22;3765;47.962;7.952;2023-07-31T08:05:47;21.80;56.70
7447;DHT22;3765;47.962;7.952;2023-07-31T08:08:15;21.50;56.70
7447;DHT22;3765;47.962;7.952;2023-07-31T08:10:45;21.30;56.40
7447;DHT22;3765;47.962;7.952;2023-07-31T08:13:19;21.50;56.10
7447;DHT22;3765;47.962;7.952;2023-07-31T08:15:56;21.50;56.20
7447;DHT22;3765;47.962;7.952;2023-07-31T08:18:24;21.70;55.60
7447;DHT22;3765;47.962;7.952;2023-07-31T08:20:57;21.90;55.50
7447;DHT22;3765;47.962;7.952;2023-07-31T08:23:30;21.80;55.30
7447;DHT22;3765;47.962;7.952;2023-07-31T08:26:02;21.60;54.70
7447;DHT22;3765;47.962;7.952;2023-07-31T08:28:34;21.50;55.00
7447;DHT22;3765;47.962;7.952;2023-07-31T08:31:05;21.40;55.10
7447;DHT22;3765;47.962;7.952;2023-07-31T08:33:37;21.60;55.10
7447;DHT22;3765;47.962;7.952;2023-07-31T08:36:06;21.30;54.40
7447;DHT22;3765;47.962;7.952;2023-07-31T08:38:51;21.00;54.90
7447;DHT22;3765;47.962;7.952;2023-07-31T08:41:23;21.30;55.00
7447;DHT22;3765;47.962;7.952;2023-07-31T08:43:53;21.40;54.80
7447;DHT22;3765;47.962;7.952;2023-07-31T08:46:24;21.50;54.70
7447;DHT22;3765;47.962;7.952;2023-07-31T08:48:53;21.80;54.30
7447;DHT22;3765;47.962;7.952;2023-07-31T08:51:23;21.80;54.40
7447;DHT22;3765;47.962;7.952;2023-07-31T08:54:05;21.90;54.30
7447;DHT22;3765;47.962;7.952;2023-07-31T08:56:39;22.10;54.30
7447;DHT22;3765;47.962;7.952;2023-07-31T08:59:09;22.20;54.10
7447;DHT22;3765;47.962;7.952;2023-07-31T09:01:53;22.30;53.70
7447;DHT22;3765;47.962;7.952;2023-07-31T09:04:26;22.30;53.50
7447;DHT22;3765;47.962;7.952;2023-07-31T09:07:00;22.40;53.20
7447;DHT22;3765;47.962;7.952;2023-07-31T09:09:30;22.40;53.20
7447;DHT22;3765;47.962;7.952;2023-07-31T09:12:01;22.40;52.80
7447;DHT22;3765;47.962;7.952;2023-07-31T09:14:31;22.30;52.60
7447;DHT22;3765;47.962;7.952;2023-07-31T09:17:08;22.30;52.20
7447;DHT22;3765;47.962;7.952;2023-07-31T09:19:36;22.30;51.60
7447;DHT22;3765;47.962;7.952;2023-07-31T09:22:05;22.50;52.20
7447;DHT22;3765;47.962;7.952;2023-07-31T09:24:34;22.50;51.70
7447;DHT22;3765;47.962;7.952;2023-07-31T09:27:06;22.00;51.40
7447;DHT22;3765;47.962;7.952;2023-07-31T09:29:34;21.80;51.40
7447;DHT22;3765;47.962;7.952;2023-07-31T09:32:03;21.50;51.80
7447;DHT22;3765;47.962;7.952;2023-07-31T09:34:37;21.30;52.00
7447;DHT22;3765;47.962;7.952;2023-07-31T09:37:06;21.50;52.30
7447;DHT22;3765;47.962;7.952;2023-07-31T09:39:45;21.70;51.90
7447;DHT22;3765;47.962;7.952;2023-07-31T09:42:30;22.00;52.10
7447;DHT22;3765;47.962;7.952;2023-07-31T09:45:12;22.20;51.70
7447;DHT22;3765;47.962;7.952;2023-07-31T09:47:49;22.10;51.00
7447;DHT22;3765;47.962;7.952;2023-07-31T09:50:21;22.20;51.70
7447;DHT22;3765;47.962;7.952;2023-07-31T09:52:50;22.30;50.90
7447;DHT22;3765;47.962;7.952;2023-07-31T09:55:24;22.10;51.50
7447;DHT22;3765;47.962;7.952;2023-07-31T09:57:57;22.20;51.60
7447;DHT22;3765;47.962;7.952;2023-07-31T10:00:26;22.40;51.40
7447;DHT22;3765;47.962;7.952;2023-07-31T10:02:59;22.50;51.10
7447;DHT22;3765;47.962;7.952;2023-07-31T10:05:31;22.60;51.00
7447;DHT22;3765;47.962;7.952;2023-07-31T10:08:00;22.70;50.50
7447;DHT22;3765;47.962;7.952;2023-07-31T10:10:29;22.80;50.60
7447;DHT22;3765;47.962;7.952;2023-07-31T10:13:00;22.90;50.20
7447;DHT22;3765;47.962;7.952;2023-07-31T10:15:29;22.80;50.20
7447;DHT22;3765;47.962;7.952;2023-07-31T10:17:59;23.00;50.60
7447;DHT22;3765;47.962;7.952;2023-07-31T10:20:28;23.20;50.50
7447;DHT22;3765;47.962;7.952;2023-07-31T10:22:57;23.30;50.20
7447;DHT22;3765;47.962;7.952;2023-07-31T10:25:26;23.20;50.00
7447;DHT22;3765;47.962;7.952;2023-07-31T10:27:55;23.20;50.10
7447;DHT22;3765;47.962;7.952;2023-07-31T10:30:29;23.20;49.70
7447;DHT22;3765;47.962;7.952;2023-07-31T10:32:57;23.20;49.80
7447;DHT22;3765;47.962;7.952;2023-07-31T10:35:27;23.30;49.50
7447;DHT22;3765;47.962;7.952;2023-07-31T10:37:56;23.40;49.50
7447;DHT22;3765;47.962;7.952;2023-07-31T10:40:36;23.60;49.20
7447;DHT22;3765;47.962;7.952;2023-07-31T10:43:05;23.70;49.10
7447;DHT22;3765;47.962;7.952;2023-07-31T10:45:38;23.70;49.00
7447;DHT22;3765;47.962;7.952;2023-07-31T10:48:12;23.80;48.70
7447;DHT22;3765;47.962;7.952;2023-07-31T10:50:47;24.00;48.50
7447;DHT22;3765;47.962;7.952;2023-07-31T10:53:23;24.30;48.50
7447;DHT22;3765;47.962;7.952;2023-07-31T10:55:52;24.90;48.20
7447;DHT22;3765;47.962;7.952;2023-07-31T10:58:21;25.10;47.90
7447;DHT22;3765;47.962;7.952;2023-07-31T11:00:55;25.30;47.60
7447;DHT22;3765;47.962;7.952;2023-07-31T11:03:26;25.20;47.20
7447;DHT22;3765;47.962;7.952;2023-07-31T11:06:00;25.30;47.30
7447;DHT22;3765;47.962;7.952;2023-07-31T11:08:31;25.50;46.30
7447;DHT22;3765;47.962;7.952;2023-07-31T11:11:06;25.50;46.30
7447;DHT22;3765;47.962;7.952;2023-07-31T11:13:40;25.50;46.50
7447;DHT22;3765;47.962;7.952;2023-07-31T11:16:11;25.50;46.10
7447;DHT22;3765;47.962;7.952;2023-07-31T11:18:40;25.50;46.20
7447;DHT22;3765;47.962;7.952;2023-07-31T11:21:12;25.80;45.50
7447;DHT22;3765;47.962;7.952;2023-07-31T11:23:41;25.60;45.90
7447;DHT22;3765;47.962;7.952;2023-07-31T11:26:12;25.50;45.80
7447;DHT22;3765;47.962;7.952;2023-07-31T11:28:40;24.80;45.70
7447;DHT22;3765;47.962;7.952;2023-07-31T11:31:11;25.00;46.40
7447;DHT22;3765;47.962;7.952;2023-07-31T11:33:39;25.20;46.30
7447;DHT22;3765;47.962;7.952;2023-07-31T11:36:16;25.20;46.40
7447;DHT22;3765;47.962;7.952;2023-07-31T11:38:45;25.10;46.80
7447;DHT22;3765;47.962;7.952;2023-07-31T11:41:15;25.50;46.70
7447;DHT22;3765;47.962;7.952;2023-07-31T11:43:45;25.70;46.10
7447;DHT22;3765;47.962;7.952;2023-07-31T11:46:15;25.30;45.50
7447;DHT22;3765;47.962;7.952;2023-07-31T11:48:44;24.90;45.80
7447;DHT22;3765;47.962;7.952;2023-07-31T11:51:13;24.80;46.00
7447;DHT22;3765;47.962;7.952;2023-07-31T11:53:44;25.10;45.90
7447;DHT22;3765;47.962;7.952;2023-07-31T11:56:16;25.10;45.70
7447;DHT22;3765;47.962;7.952;2023-07-31T11:58:46;25.20;45.80
7447;DHT22;3765;47.962;7.952;2023-07-31T12:01:19;25.30;45.80
7447;DHT22;3765;47.962;7.952;2023-07-31T12:03:48;25.30;45.80
7447;DHT22;3765;47.962;7.952;2023-07-31T12:06:17;25.10;45.80
7447;DHT22;3765;47.962;7.952;2023-07-31T12:08:47;25.50;45.90
7447;DHT22;3765;47.962;7.952;2023-07-31T12:11:15;25.50;45.20
7447;DHT22;3765;47.962;7.952;2023-07-31T12:13:45;25.30;45.70
7447;DHT22;3765;47.962;7.952;2023-07-31T12:16:13;25.60;45.80
7447;DHT22;3765;47.962;7.952;2023-07-31T12:18:42;25.80;45.50
7447;DHT22;3765;47.962;7.952;2023-07-31T12:21:11;25.90;45.00
7447;DHT22;3765;47.962;7.952;2023-07-31T12:23:40;26.40;45.00
7447;DHT22;3765;47.962;7.952;2023-07-31T12:26:10;26.50;44.30
7447;DHT22;3765;47.962;7.952;2023-07-31T12:28:41;26.60;43.80
7447;DHT22;3765;47.962;7.952;2023-07-31T12:31:11;26.90;43.40
7447;DHT22;3765;47.962;7.952;2023-07-31T12:33:42;27.00;43.20
7447;DHT22;3765;47.962;7.952;2023-07-31T12:36:12;26.90;42.20
7447;DHT22;3765;47.962;7.952;2023-07-31T12:38:40;26.70;42.90
7447;DHT22;3765;47.962;7.952;2023-07-31T12:41:09;26.90;42.70
7447;DHT22;3765;47.962;7.952;2023-07-31T12:43:39;26.80;42.50
7447;DHT22;3765;47.962;7.952;2023-07-31T12:46:07;26.40;42.70
7447;DHT22;3765;47.962;7.952;2023-07-31T12:48:37;26.10;43.10
7447;DHT22;3765;47.962;7.952;2023-07-31T12:51:07;26.40;43.20
7447;DHT22;3765;47.962;7.952;2023-07-31T12:53:35;27.10;42.90
7447;DHT22;3765;47.962;7.952;2023-07-31T12:56:04;27.70;42.30
7447;DHT22;3765;47.962;7.952;2023-07-31T12:58:32;27.70;42.10
7447;DHT22;3765;47.962;7.952;2023-07-31T13:01:00;27.80;41.80
7447;DHT22;3765;47.962;7.952;2023-07-31T13:03:29;28.10;41.80
7447;DHT22;3765;47.962;7.952;2023-07-31T13:05:57;28.30;41.00
7447;DHT22;3765;47.962;7.952;2023-07-31T13:08:27;28.20;40.80
7447;DHT22;3765;47.962;7.952;2023-07-31T13:10:55;28.30;40.60
7447;DHT22;3765;47.962;7.952;2023-07-31T13:13:23;28.00;40.30
7447;DHT22;3765;47.962;7.952;2023-07-31T13:15:52;27.90;40.50
7447;DHT22;3765;47.962;7.952;2023-07-31T13:18:20;27.90;40.60
7447;DHT22;3765;47.962;7.952;2023-07-31T13:20:48;28.40;40.60
7447;DHT22;3765;47.962;7.952;2023-07-31T13:23:16;28.40;40.20
7447;DHT22;3765;47.962;7.952;2023-07-31T13:25:46;28.40;40.10
7447;DHT22;3765;47.962;7.952;2023-07-31T13:28:16;28.80;40.10
7447;DHT22;3765;47.962;7.952;2023-07-31T13:30:45;29.00;39.80
7447;DHT22;3765;47.962;7.952;2023-07-31T13:33:14;29.50;39.20
7447;DHT22;3765;47.962;7.952;2023-07-31T13:36:02;29.90;38.50
7447;DHT22;3765;47.962;7.952;2023-07-31T13:38:32;30.30;38.50
7447;DHT22;3765;47.962;7.952;2023-07-31T13:41:03;30.50;37.60
7447;DHT22;3765;47.962;7.952;2023-07-31T13:43:32;30.30;37.50
7447;DHT22;3765;47.962;7.952;2023-07-31T13:46:01;30.20;37.40
7447;DHT22;3765;47.962;7.952;2023-07-31T13:48:34;29.50;37.10
7447;DHT22;3765;47.962;7.952;2023-07-31T13:51:04;28.80;37.90
7447;DHT22;3765;47.962;7.952;2023-07-31T13:53:33;29.20;37.70
7447;DHT22;3765;47.962;7.952;2023-07-31T13:56:04;30.00;37.40
7447;DHT22;3765;47.962;7.952;2023-07-31T13:58:33;29.80;36.90
7447;DHT22;3765;47.962;7.952;2023-07-31T14:01:03;30.20;36.90
7447;DHT22;3765;47.962;7.952;2023-07-31T14:03:32;30.30;37.00
7447;DHT22;3765;47.962;7.952;2023-07-31T14:06:01;30.60;36.50
7447;DHT22;3765;47.962;7.952;2023-07-31T14:08:31;30.30;36.40
7447;DHT22;3765;47.962;7.952;2023-07-31T14:11:00;30.50;36.20
7447;DHT22;3765;47.962;7.952;2023-07-31T14:13:31;30.40;36.60
7447;DHT22;3765;47.962;7.952;2023-07-31T14:16:00;30.60;35.40
7447;DHT22;3765;47.962;7.952;2023-07-31T14:18:29;29.80;35.90
7447;DHT22;3765;47.962;7.952;2023-07-31T14:20:59;29.80;35.90
7447;DHT22;3765;47.962;7.952;2023-07-31T14:23:28;29.30;36.10
7447;DHT22;3765;47.962;7.952;2023-07-31T14:25:57;29.30;36.50
7447;DHT22;3765;47.962;7.952;2023-07-31T14:28:26;29.00;36.40
7447;DHT22;3765;47.962;7.952;2023-07-31T14:30:57;28.90;36.60
7447;DHT22;3765;47.962;7.952;2023-07-31T14:33:27;28.30;36.80
7447;DHT22;3765;47.962;7.952;2023-07-31T14:35:55;28.60;37.30
7447;DHT22;3765;47.962;7.952;2023-07-31T14:38:24;28.80;37.30
7447;DHT22;3765;47.962;7.952;2023-07-31T14:40:53;29.30;37.10
7447;DHT22;3765;47.962;7.952;2023-07-31T14:43:22;29.70;36.90
7447;DHT22;3765;47.962;7.952;2023-07-31T14:45:52;30.10;36.60
7447;DHT22;3765;47.962;7.952;2023-07-31T14:48:24;30.00;36.50
7447;DHT22;3765;47.962;7.952;2023-07-31T14:50:53;29.80;36.50
7447;DHT22;3765;47.962;7.952;2023-07-31T14:53:23;29.70;36.40
7447;DHT22;3765;47.962;7.952;2023-07-31T14:55:52;29.90;36.60
7447;DHT22;3765;47.962;7.952;2023-07-31T14:58:21;30.20;36.20
7447;DHT22;3765;47.962;7.952;2023-07-31T15:00:50;30.30;35.20
7447;DHT22;3765;47.962;7.952;2023-07-31T15:03:19;30.50;35.20
7447;DHT22;3765;47.962;7.952;2023-07-31T15:05:49;29.90;35.70
7447;DHT22;3765;47.962;7.952;2023-07-31T15:08:18;30.20;35.70
7447;DHT22;3765;47.962;7.952;2023-07-31T15:10:48;30.30;35.30
7447;DHT22;3765;47.962;7.952;2023-07-31T15:13:18;30.20;35.00
7447;DHT22;3765;47.962;7.952;2023-07-31T15:15:47;30.80;34.50
7447;DHT22;3765;47.962;7.952;2023-07-31T15:18:16;30.80;34.70
7447;DHT22;3765;47.962;7.952;2023-07-31T15:20:45;31.10;33.90
7447;DHT22;3765;47.962;7.952;2023-07-31T15:23:15;29.90;34.30
7447;DHT22;3765;47.962;7.952;2023-07-31T15:25:45;29.20;35.20
7447;DHT22;3765;47.962;7.952;2023-07-31T15:28:15;29.30;35.20
7447;DHT22;3765;47.962;7.952;2023-07-31T15:30:45;29.70;35.00
7447;DHT22;3765;47.962;7.952;2023-07-31T15:33:15;30.50;35.00
7447;DHT22;3765;47.962;7.952;2023-07-31T15:35:44;30.70;34.60
7447;DHT22;3765;47.962;7.952;2023-07-31T15:38:15;29.80;34.90
7447;DHT22;3765;47.962;7.952;2023-07-31T15:40:44;29.60;35.40
7447;DHT22;3765;47.962;7.952;2023-07-31T15:43:13;29.90;35.50
7447;DHT22;3765;47.962;7.952;2023-07-31T15:45:43;30.50;35.20
7447;DHT22;3765;47.962;7.952;2023-07-31T15:48:12;30.60;35.00
7447;DHT22;3765;47.962;7.952;2023-07-31T15:50:41;30.10;35.40
7447;DHT22;3765;47.962;7.952;2023-07-31T15:53:10;29.20;35.50
7447;DHT22;3765;47.962;7.952;2023-07-31T15:55:41;29.30;35.80
7447;DHT22;3765;47.962;7.952;2023-07-31T15:58:10;29.00;35.90
7447;DHT22;3765;47.962;7.952;2023-07-31T16:00:39;29.00;36.20
7447;DHT22;3765;47.962;7.952;2023-07-31T16:03:09;28.70;36.50
7447;DHT22;3765;47.962;7.952;2023-07-31T16:05:38;28.40;36.30
7447;DHT22;3765;47.962;7.952;2023-07-31T16:08:07;27.70;36.70
7447;DHT22;3765;47.962;7.952;2023-07-31T16:10:36;27.90;36.80
7447;DHT22;3765;47.962;7.952;2023-07-31T16:13:07;27.80;36.80
7447;DHT22;3765;47.962;7.952;2023-07-31T16:15:36;27.10;37.30
7447;DHT22;3765;47.962;7.952;2023-07-31T16:18:05;26.50;37.80
7447;DHT22;3765;47.962;7.952;2023-07-31T16:20:35;26.30;38.20
7447;DHT22;3765;47.962;7.952;2023-07-31T16:23:04;26.00;38.80
7447;DHT22;3765;47.962;7.952;2023-07-31T16:25:34;26.00;39.30
7447;DHT22;3765;47.962;7.952;2023-07-31T16:28:03;25.80;39.50
7447;DHT22;3765;47.962;7.952;2023-07-31T16:30:35;25.80;39.50